Time;durP1;ratioP1;P1;durP2;ratioP2;P2;SDS_P1;SDS_P2;PMS_P1;PMS_P2;Temp;Humidity;BMP_temperature;BMP_pressure;BME280_temperature;BME280_humidity;BME280_pressure;Samples;Min_cycle;Max_cycle;Signal;HPM_P1;HPM_P2
2023/07/12 00:01:10;;;;;;;;;;;23.00;72.50;;;;;;5052659;28;20331;-86
2023/07/12 00:03:35;;;;;;;;;;;22.80;73.00;;;;;;5033251;28;20017;-86
2023/07/12 00:06:01;;;;;;;;;;;22.80;72.90;;;;;;4967637;28;20423;-86
2023/07/12 00:08:28;;;;;;;;;;;22.60;73.50;;;;;;5052179;28;20002;-86
2023/07/12 00:10:54;;;;;;;;;;;22.60;73.50;;;;;;5050860;28;19922;-86
2023/07/12 00:13:20;;;;;;;;;;;22.80;73.00;;;;;;5049968;28;19910;-85
2023/07/12 00:15:47;;;;;;;;;;;22.80;73.00;;;;;;4955118;28;19915;-85
2023/07/12 00:18:14;;;;;;;;;;;22.60;73.50;;;;;;5034334;28;19918;-85
2023/07/12 00:20:40;;;;;;;;;;;22.50;73.80;;;;;;4968393;28;19933;-86
2023/07/12 00:23:07;;;;;;;;;;;22.50;74.10;;;;;;5050412;28;20371;-85
2023/07/12 00:25:33;;;;;;;;;;;22.40;74.60;;;;;;4967799;28;19914;-85
2023/07/12 00:27:59;;;;;;;;;;;22.30;74.60;;;;;;4968294;28;20583;-86
2023/07/12 00:30:29;;;;;;;;;;;22.20;74.90;;;;;;4964889;28;20383;-85
2023/07/12 00:32:55;;;;;;;;;;;22.10;75.40;;;;;;5051276;28;20387;-84
2023/07/12 00:35:23;;;;;;;;;;;22.10;75.50;;;;;;4967733;28;20010;-85
2023/07/12 00:37:52;;;;;;;;;;;22.10;75.70;;;;;;5043748;28;19910;-86
2023/07/12 00:40:36;;;;;;;;;;;22.00;76.00;;;;;;5051551;28;19914;-85
2023/07/12 00:43:28;;;;;;;;;;;21.90;76.10;;;;;;4968303;28;19916;-86
2023/07/12 00:45:55;;;;;;;;;;;21.80;76.50;;;;;;5012237;28;19975;-85
2023/07/12 00:48:20;;;;;;;;;;;21.80;76.60;;;;;;4984343;28;19948;-84
2023/07/12 00:50:47;;;;;;;;;;;21.70;76.70;;;;;;4976652;28;19914;-85
2023/07/12 00:53:14;;;;;;;;;;;21.80;76.60;;;;;;5066178;28;19910;-85
2023/07/12 00:56:00;;;;;;;;;;;21.80;76.70;;;;;;4971340;28;20010;-85
2023/07/12 00:58:27;;;;;;;;;;;21.70;76.80;;;;;;5034430;28;19914;-85
2023/07/12 01:00:52;;;;;;;;;;;21.80;76.60;;;;;;4967243;28;19929;-85
2023/07/12 01:03:19;;;;;;;;;;;21.80;76.70;;;;;;5051650;28;19910;-85
2023/07/12 01:05:45;;;;;;;;;;;21.80;76.80;;;;;;5032461;28;20462;-85
2023/07/12 01:08:12;;;;;;;;;;;21.90;76.40;;;;;;4967760;28;20001;-86
2023/07/12 01:10:38;;;;;;;;;;;21.80;76.60;;;;;;4984253;28;20089;-85
2023/07/12 01:13:04;;;;;;;;;;;21.80;76.70;;;;;;4970932;28;19910;-85
2023/07/12 01:15:31;;;;;;;;;;;21.80;76.50;;;;;;5055757;28;19929;-86
2023/07/12 01:17:57;;;;;;;;;;;21.80;76.70;;;;;;5050774;28;20014;-85
2023/07/12 01:20:22;;;;;;;;;;;21.80;76.40;;;;;;5052092;28;20127;-86
2023/07/12 01:22:50;;;;;;;;;;;21.90;76.00;;;;;;5038550;28;20047;-86
2023/07/12 01:25:16;;;;;;;;;;;21.90;76.10;;;;;;4971647;28;19945;-85
2023/07/12 01:27:41;;;;;;;;;;;21.90;75.50;;;;;;4971171;28;19965;-86
2023/07/12 01:30:07;;;;;;;;;;;21.80;75.60;;;;;;4971843;28;19914;-86
2023/07/12 01:32:33;;;;;;;;;;;21.80;75.50;;;;;;4971136;28;20291;-85
2023/07/12 01:34:59;;;;;;;;;;;21.80;75.70;;;;;;4970316;28;19937;-86
2023/07/12 01:37:24;;;;;;;;;;;21.80;76.60;;;;;;5057073;28;19910;-85
2023/07/12 01:39:50;;;;;;;;;;;21.90;77.40;;;;;;5051062;28;19914;-86
2023/07/12 01:42:15;;;;;;;;;;;21.80;78.50;;;;;;5037960;28;20300;-86
2023/07/12 01:44:40;;;;;;;;;;;21.70;78.80;;;;;;4970608;28;19930;-86
2023/07/12 01:47:06;;;;;;;;;;;21.60;79.10;;;;;;5054010;28;19919;-86
2023/07/12 01:49:31;;;;;;;;;;;21.50;78.80;;;;;;4971365;28;19916;-86
2023/07/12 01:51:57;;;;;;;;;;;21.40;77.30;;;;;;4970728;28;19911;-86
2023/07/12 01:54:22;;;;;;;;;;;21.30;77.00;;;;;;4970095;28;20388;-85
2023/07/12 01:56:48;;;;;;;;;;;21.30;78.70;;;;;;5053280;28;19961;-86
2023/07/12 01:59:13;;;;;;;;;;;21.30;80.50;;;;;;5035705;28;19914;-86
2023/07/12 02:01:39;;;;;;;;;;;21.10;81.30;;;;;;5054424;28;19929;-86
2023/07/12 02:04:04;;;;;;;;;;;20.80;82.40;;;;;;5058366;28;19924;-86
2023/07/12 02:06:30;;;;;;;;;;;20.80;82.70;;;;;;5037050;28;19913;-86
2023/07/12 02:08:55;;;;;;;;;;;20.70;81.50;;;;;;5054134;28;19910;-86
2023/07/12 02:11:21;;;;;;;;;;;20.70;82.60;;;;;;5037353;28;19970;-86
2023/07/12 02:13:46;;;;;;;;;;;20.60;83.80;;;;;;5036641;28;20067;-86
2023/07/12 02:16:11;;;;;;;;;;;20.60;84.70;;;;;;5052666;28;19914;-86
2023/07/12 02:18:37;;;;;;;;;;;20.50;83.80;;;;;;4969939;28;19929;-86
2023/07/12 02:21:02;;;;;;;;;;;20.50;83.90;;;;;;4970285;28;19915;-86
2023/07/12 02:23:28;;;;;;;;;;;20.30;84.00;;;;;;5066850;28;19914;-86
2023/07/12 02:25:54;;;;;;;;;;;20.30;85.40;;;;;;4980286;28;19914;-85
2023/07/12 02:28:19;;;;;;;;;;;20.20;85.60;;;;;;4982107;28;19910;-85
2023/07/12 02:30:44;;;;;;;;;;;20.10;86.00;;;;;;5038742;28;19911;-86
2023/07/12 02:33:10;;;;;;;;;;;20.10;86.40;;;;;;5035112;28;20063;-85
2023/07/12 02:35:38;;;;;;;;;;;20.20;86.50;;;;;;5055200;28;19910;-86
2023/07/12 02:38:04;;;;;;;;;;;20.20;86.60;;;;;;5055834;28;19913;-86
2023/07/12 02:40:29;;;;;;;;;;;20.30;87.00;;;;;;5075318;28;19921;-84
2023/07/12 02:42:56;;;;;;;;;;;20.30;86.90;;;;;;4971411;28;19915;-85
2023/07/12 02:45:21;;;;;;;;;;;20.20;86.50;;;;;;4970118;28;20047;-86
2023/07/12 02:47:47;;;;;;;;;;;20.20;85.70;;;;;;5053764;28;19962;-86
2023/07/12 02:50:12;;;;;;;;;;;20.20;85.70;;;;;;4970982;28;19917;-85
2023/07/12 02:52:38;;;;;;;;;;;20.20;86.20;;;;;;4974356;28;19914;-86
2023/07/12 02:55:04;;;;;;;;;;;20.20;86.20;;;;;;4969941;28;20021;-86
2023/07/12 02:57:29;;;;;;;;;;;20.20;86.30;;;;;;4976816;28;19929;-86
2023/07/12 02:59:55;;;;;;;;;;;20.30;86.40;;;;;;4970666;28;19997;-86
2023/07/12 03:02:20;;;;;;;;;;;20.30;86.30;;;;;;5052778;28;19925;-86
2023/07/12 03:04:46;;;;;;;;;;;20.20;85.00;;;;;;5036720;28;19914;-86
2023/07/12 03:07:11;;;;;;;;;;;20.20;84.10;;;;;;4965290;28;19915;-85
2023/07/12 03:09:37;;;;;;;;;;;20.00;81.70;;;;;;5053794;28;20021;-87
2023/07/12 03:12:03;;;;;;;;;;;19.90;78.80;;;;;;5053177;28;19914;-86
2023/07/12 03:14:28;;;;;;;;;;;19.80;79.40;;;;;;5036164;28;20256;-86
2023/07/12 03:16:54;;;;;;;;;;;19.80;79.70;;;;;;5035073;28;19950;-86
2023/07/12 03:19:19;;;;;;;;;;;19.60;79.20;;;;;;4970583;28;19950;-87
2023/07/12 03:21:46;;;;;;;;;;;19.60;79.50;;;;;;5036389;28;19917;-85
2023/07/12 03:24:11;;;;;;;;;;;19.50;81.10;;;;;;4968414;28;20364;-86
2023/07/12 03:26:37;;;;;;;;;;;19.50;80.30;;;;;;5036434;28;20013;-86
2023/07/12 03:29:03;;;;;;;;;;;19.40;80.10;;;;;;5052381;28;19910;-85
2023/07/12 03:31:28;;;;;;;;;;;19.40;80.90;;;;;;5052083;28;19988;-86
2023/07/12 03:33:54;;;;;;;;;;;19.30;81.70;;;;;;5052018;28;20364;-85
2023/07/12 03:36:20;;;;;;;;;;;19.30;80.30;;;;;;4957505;28;19910;-86
2023/07/12 03:38:46;;;;;;;;;;;19.20;80.80;;;;;;5051446;28;20004;-85
2023/07/12 03:41:15;;;;;;;;;;;19.10;81.10;;;;;;5035953;28;19958;-85
2023/07/12 03:43:40;;;;;;;;;;;19.00;82.50;;;;;;4969415;28;19988;-85
2023/07/12 03:46:06;;;;;;;;;;;18.90;83.40;;;;;;5051530;28;19922;-85
2023/07/12 03:48:31;;;;;;;;;;;18.90;83.80;;;;;;4972509;28;20009;-86
2023/07/12 03:50:57;;;;;;;;;;;18.90;84.50;;;;;;5057104;28;19910;-86
2023/07/12 03:53:23;;;;;;;;;;;18.80;84.70;;;;;;5057603;28;19968;-85
2023/07/12 03:55:49;;;;;;;;;;;18.80;84.40;;;;;;4974630;28;19914;-85
2023/07/12 03:58:16;;;;;;;;;;;18.90;84.60;;;;;;5071144;28;19989;-85
2023/07/12 04:00:42;;;;;;;;;;;18.90;84.70;;;;;;4984945;28;19966;-84
2023/07/12 04:03:08;;;;;;;;;;;18.90;84.30;;;;;;5066099;28;19971;-84
2023/07/12 04:05:37;;;;;;;;;;;18.90;84.00;;;;;;5082818;28;19913;-85
2023/07/12 04:08:03;;;;;;;;;;;18.80;84.30;;;;;;5074151;28;19919;-85
2023/07/12 04:10:28;;;;;;;;;;;18.80;85.70;;;;;;5047718;28;19953;-85
2023/07/12 04:12:54;;;;;;;;;;;18.80;87.50;;;;;;5045658;28;19918;-85
2023/07/12 04:15:19;;;;;;;;;;;18.90;87.80;;;;;;4979575;28;19914;-85
2023/07/12 04:17:44;;;;;;;;;;;19.00;87.50;;;;;;5059767;28;20280;-85
2023/07/12 04:20:10;;;;;;;;;;;19.00;88.00;;;;;;5060292;28;19981;-84
2023/07/12 04:22:36;;;;;;;;;;;19.00;87.80;;;;;;5057302;28;19918;-85
2023/07/12 04:25:01;;;;;;;;;;;19.00;88.10;;;;;;5041799;28;19921;-85
2023/07/12 04:27:28;;;;;;;;;;;19.00;88.20;;;;;;5057035;28;19917;-85
2023/07/12 04:29:53;;;;;;;;;;;19.10;87.70;;;;;;5040684;28;20348;-85
2023/07/12 04:32:19;;;;;;;;;;;19.10;87.50;;;;;;5038495;28;19914;-86
2023/07/12 04:34:45;;;;;;;;;;;19.20;87.20;;;;;;5055254;28;19914;-84
2023/07/12 04:37:11;;;;;;;;;;;19.20;87.30;;;;;;5055341;28;19915;-85
2023/07/12 04:39:36;;;;;;;;;;;19.20;87.00;;;;;;5049953;28;19935;-85
2023/07/12 04:42:02;;;;;;;;;;;19.20;86.60;;;;;;5035562;28;19986;-85
2023/07/12 04:44:27;;;;;;;;;;;19.30;85.40;;;;;;5052392;28;19925;-85
2023/07/12 04:46:53;;;;;;;;;;;19.20;85.60;;;;;;4970445;28;19925;-84
2023/07/12 04:49:18;;;;;;;;;;;19.10;86.20;;;;;;5037345;28;19959;-85
2023/07/12 04:51:44;;;;;;;;;;;19.10;85.60;;;;;;5053716;28;19914;-84
2023/07/12 04:54:09;;;;;;;;;;;19.20;85.00;;;;;;5054260;28;20021;-83
2023/07/12 04:56:35;;;;;;;;;;;19.20;85.00;;;;;;5055939;28;19910;-85
2023/07/12 04:59:00;;;;;;;;;;;19.20;85.00;;;;;;5036734;28;19918;-84
2023/07/12 05:01:26;;;;;;;;;;;19.20;84.80;;;;;;5056955;28;19957;-84
2023/07/12 05:03:51;;;;;;;;;;;19.10;84.70;;;;;;5057648;28;19914;-84
2023/07/12 05:06:17;;;;;;;;;;;19.10;85.00;;;;;;5058860;28;19917;-85
2023/07/12 05:08:43;;;;;;;;;;;19.10;84.20;;;;;;5059451;28;19910;-84
2023/07/12 05:11:08;;;;;;;;;;;19.00;84.80;;;;;;4974692;28;19914;-85
2023/07/12 05:13:34;;;;;;;;;;;19.00;84.60;;;;;;5041871;28;20007;-84
2023/07/12 05:15:59;;;;;;;;;;;19.00;84.70;;;;;;4971224;28;20014;-84
2023/07/12 05:18:25;;;;;;;;;;;18.90;85.20;;;;;;4971858;28;19914;-85
2023/07/12 05:20:52;;;;;;;;;;;18.90;85.60;;;;;;4972641;28;19914;-84
2023/07/12 05:23:17;;;;;;;;;;;18.80;84.70;;;;;;5056176;28;19946;-85
2023/07/12 05:25:50;;;;;;;;;;;18.80;84.50;;;;;;5055873;28;19956;-85
2023/07/12 05:28:15;;;;;;;;;;;19.00;84.40;;;;;;5037851;28;19922;-84
2023/07/12 05:30:41;;;;;;;;;;;19.00;84.30;;;;;;5056133;28;20316;-85
2023/07/12 05:33:06;;;;;;;;;;;19.00;84.10;;;;;;5075355;28;20387;-85
2023/07/12 05:35:32;;;;;;;;;;;19.00;83.40;;;;;;5035448;28;19908;-84
2023/07/12 05:37:57;;;;;;;;;;;19.10;83.40;;;;;;5045210;28;20009;-85
2023/07/12 05:40:24;;;;;;;;;;;19.20;83.00;;;;;;5056672;28;19925;-86
2023/07/12 05:42:50;;;;;;;;;;;19.20;83.00;;;;;;5045589;28;19930;-85
2023/07/12 05:45:15;;;;;;;;;;;19.20;82.20;;;;;;5042225;28;19926;-85
2023/07/12 05:47:47;;;;;;;;;;;19.30;82.20;;;;;;5041105;28;19966;-84
2023/07/12 05:50:13;;;;;;;;;;;19.30;81.40;;;;;;5040895;28;19938;-85
2023/07/12 05:52:39;;;;;;;;;;;19.20;81.40;;;;;;5055032;28;20360;-85
2023/07/12 05:55:05;;;;;;;;;;;19.10;81.70;;;;;;4971655;28;19922;-85
2023/07/12 05:57:31;;;;;;;;;;;19.10;80.80;;;;;;5054445;28;19914;-85
2023/07/12 05:59:56;;;;;;;;;;;19.10;80.70;;;;;;5034335;28;20005;-84
2023/07/12 06:02:23;;;;;;;;;;;19.10;80.90;;;;;;5038940;28;19918;-85
2023/07/12 06:04:49;;;;;;;;;;;19.10;81.00;;;;;;5048637;28;20348;-84
2023/07/12 06:07:14;;;;;;;;;;;19.10;81.30;;;;;;4969455;28;19921;-85
2023/07/12 06:09:40;;;;;;;;;;;19.00;81.20;;;;;;5037233;28;20003;-85
2023/07/12 06:12:05;;;;;;;;;;;19.00;81.30;;;;;;5033456;28;19925;-85
2023/07/12 06:14:31;;;;;;;;;;;18.90;81.30;;;;;;5048903;28;20368;-85
2023/07/12 06:16:57;;;;;;;;;;;18.90;82.00;;;;;;4969647;28;19922;-85
2023/07/12 06:19:23;;;;;;;;;;;19.00;81.60;;;;;;4970828;28;20403;-85
2023/07/12 06:21:48;;;;;;;;;;;19.00;80.70;;;;;;5053959;28;19918;-85
2023/07/12 06:24:14;;;;;;;;;;;19.00;81.20;;;;;;5046787;28;20348;-86
2023/07/12 06:26:39;;;;;;;;;;;18.90;80.70;;;;;;4965964;28;19914;-85
2023/07/12 06:29:05;;;;;;;;;;;18.80;81.20;;;;;;5055364;28;20238;-87
2023/07/12 06:31:30;;;;;;;;;;;18.70;81.60;;;;;;5047070;28;19922;-85
2023/07/12 06:34:00;;;;;;;;;;;18.70;81.90;;;;;;4969469;28;19922;-85
2023/07/12 06:36:26;;;;;;;;;;;18.70;82.00;;;;;;5057572;28;20308;-85
2023/07/12 06:38:51;;;;;;;;;;;18.90;81.60;;;;;;5073553;28;19910;-85
2023/07/12 06:41:17;;;;;;;;;;;18.90;81.40;;;;;;4990110;28;20000;-86
2023/07/12 06:43:43;;;;;;;;;;;18.90;80.80;;;;;;4979646;28;19966;-85
2023/07/12 06:46:08;;;;;;;;;;;18.90;81.10;;;;;;5031809;28;20025;-85
2023/07/12 06:48:34;;;;;;;;;;;18.90;81.60;;;;;;4967856;28;20009;-85
2023/07/12 06:50:59;;;;;;;;;;;19.00;81.50;;;;;;5052944;28;19953;-86
2023/07/12 06:53:26;;;;;;;;;;;18.80;80.70;;;;;;4969285;28;20358;-86
2023/07/12 06:55:52;;;;;;;;;;;18.90;81.10;;;;;;5052523;28;19949;-85
2023/07/12 06:58:17;;;;;;;;;;;19.00;81.30;;;;;;4967713;28;19922;-85
2023/07/12 07:00:43;;;;;;;;;;;19.10;81.00;;;;;;5049225;28;19918;-85
2023/07/12 07:03:09;;;;;;;;;;;19.10;80.70;;;;;;5030263;28;20518;-84
2023/07/12 07:05:39;;;;;;;;;;;19.10;80.80;;;;;;4969036;28;20009;-86
2023/07/12 07:08:05;;;;;;;;;;;19.10;80.60;;;;;;5044894;28;19918;-84
2023/07/12 07:10:31;;;;;;;;;;;19.20;80.40;;;;;;5073938;28;19976;-86
2023/07/12 07:12:56;;;;;;;;;;;19.20;80.00;;;;;;5027120;28;19944;-85
2023/07/12 07:15:22;;;;;;;;;;;19.40;79.80;;;;;;5034928;28;19979;-85
2023/07/12 07:17:47;;;;;;;;;;;19.50;79.80;;;;;;4969206;28;19914;-86
2023/07/12 07:20:13;;;;;;;;;;;19.50;78.40;;;;;;5035534;28;19941;-86
2023/07/12 07:22:38;;;;;;;;;;;19.50;77.80;;;;;;5035878;28;20438;-85
2023/07/12 07:25:04;;;;;;;;;;;19.60;77.30;;;;;;4969075;28;19963;-86
2023/07/12 07:27:30;;;;;;;;;;;19.50;76.60;;;;;;5031568;28;19964;-85
2023/07/12 07:29:55;;;;;;;;;;;19.50;77.40;;;;;;4969594;28;19973;-86
2023/07/12 07:32:21;;;;;;;;;;;19.30;76.90;;;;;;4967550;28;19914;-86
2023/07/12 07:34:47;;;;;;;;;;;19.10;75.30;;;;;;4966710;28;19992;-85
2023/07/12 07:37:12;;;;;;;;;;;19.10;75.00;;;;;;4979709;28;19910;-85
2023/07/12 07:39:38;;;;;;;;;;;19.10;74.70;;;;;;4981346;28;19937;-87
2023/07/12 07:42:03;;;;;;;;;;;19.20;74.60;;;;;;4971202;28;19930;-85
2023/07/12 07:44:29;;;;;;;;;;;19.20;74.20;;;;;;5028774;28;19922;-85
2023/07/12 07:46:54;;;;;;;;;;;19.30;74.40;;;;;;4967267;28;19922;-86
2023/07/12 07:49:20;;;;;;;;;;;19.40;74.50;;;;;;4967584;28;20011;-86
2023/07/12 07:51:46;;;;;;;;;;;19.40;73.40;;;;;;4965281;28;19976;-85
2023/07/12 07:54:11;;;;;;;;;;;19.40;74.60;;;;;;5038159;28;19936;-85
2023/07/12 07:56:37;;;;;;;;;;;19.50;73.80;;;;;;4960281;28;20067;-86
2023/07/12 07:59:02;;;;;;;;;;;19.60;71.90;;;;;;5052350;28;19919;-86
2023/07/12 08:01:28;;;;;;;;;;;19.60;72.30;;;;;;4978902;28;20317;-85
2023/07/12 08:03:53;;;;;;;;;;;19.50;73.20;;;;;;4969448;28;19914;-84
2023/07/12 08:06:19;;;;;;;;;;;19.50;73.00;;;;;;5050438;28;19937;-84
2023/07/12 08:08:45;;;;;;;;;;;19.50;73.50;;;;;;4964962;28;21207;-83
2023/07/12 08:11:10;;;;;;;;;;;19.50;73.70;;;;;;4967519;28;19918;-85
2023/07/12 08:13:36;;;;;;;;;;;19.50;73.90;;;;;;4968899;28;19914;-85
2023/07/12 08:16:01;;;;;;;;;;;19.80;73.10;;;;;;4974071;28;19918;-84
2023/07/12 08:18:27;;;;;;;;;;;20.00;72.20;;;;;;5035212;28;20013;-86
2023/07/12 08:20:55;;;;;;;;;;;20.30;70.20;;;;;;4967232;28;19914;-86
2023/07/12 08:23:21;;;;;;;;;;;20.50;68.70;;;;;;4968084;28;19915;-85
2023/07/12 08:25:51;;;;;;;;;;;20.60;66.90;;;;;;4968189;28;19926;-85
2023/07/12 08:28:17;;;;;;;;;;;20.60;66.20;;;;;;5036398;28;19922;-85
2023/07/12 08:30:42;;;;;;;;;;;20.60;66.00;;;;;;5031338;28;19921;-87
2023/07/12 08:33:08;;;;;;;;;;;20.70;66.20;;;;;;5031356;28;20275;-87
2023/07/12 08:35:33;;;;;;;;;;;20.80;65.00;;;;;;5033962;28;19926;-86
2023/07/12 08:37:59;;;;;;;;;;;20.90;64.30;;;;;;5053191;28;19954;-86
2023/07/12 08:40:25;;;;;;;;;;;20.90;64.40;;;;;;5038585;28;20497;-86
2023/07/12 08:43:09;;;;;;;;;;;20.80;64.20;;;;;;4984418;28;20394;-84
2023/07/12 08:45:35;;;;;;;;;;;20.80;65.30;;;;;;5033943;28;19978;-85
2023/07/12 08:48:02;;;;;;;;;;;20.80;64.50;;;;;;5044825;28;19945;-86
2023/07/12 08:50:28;;;;;;;;;;;20.90;64.40;;;;;;5014698;28;19913;-86
2023/07/12 08:52:54;;;;;;;;;;;20.80;64.60;;;;;;5018799;28;20205;-87
2023/07/12 08:55:20;;;;;;;;;;;20.90;64.70;;;;;;4968611;28;20021;-86
2023/07/12 08:58:03;;;;;;;;;;;20.90;64.40;;;;;;5029828;28;20055;-86
2023/07/12 09:00:32;;;;;;;;;;;21.00;64.90;;;;;;5028356;28;19954;-87
2023/07/12 09:02:58;;;;;;;;;;;21.00;64.40;;;;;;4967711;28;19914;-86
2023/07/12 09:05:24;;;;;;;;;;;21.10;65.50;;;;;;4964504;28;19941;-87
2023/07/12 09:07:52;;;;;;;;;;;21.10;65.30;;;;;;5029041;28;19945;-86
2023/07/12 09:10:33;;;;;;;;;;;21.00;65.50;;;;;;5047291;28;19922;-87
2023/07/12 09:12:59;;;;;;;;;;;21.10;65.30;;;;;;5035038;28;19915;-87
2023/07/12 09:15:30;;;;;;;;;;;21.20;65.40;;;;;;5026865;28;19926;-84
2023/07/12 09:17:56;;;;;;;;;;;21.30;65.40;;;;;;5034208;28;19915;-87
2023/07/12 09:20:24;;;;;;;;;;;21.50;65.20;;;;;;5061420;28;19921;-88
2023/07/12 09:22:50;;;;;;;;;;;21.50;64.90;;;;;;4968160;28;20005;-87
2023/07/12 09:25:21;;;;;;;;;;;21.40;64.30;;;;;;5050707;28;19914;-86
2023/07/12 09:27:47;;;;;;;;;;;21.30;64.20;;;;;;4967921;28;20303;-87
2023/07/12 09:30:17;;;;;;;;;;;21.40;64.50;;;;;;5034934;28;19914;-87
2023/07/12 09:32:43;;;;;;;;;;;21.20;64.00;;;;;;5034439;28;19910;-87
2023/07/12 09:35:29;;;;;;;;;;;21.20;63.90;;;;;;5034191;28;19932;-87
2023/07/12 09:37:59;;;;;;;;;;;21.30;63.90;;;;;;4982724;28;19948;-88
2023/07/12 09:40:28;;;;;;;;;;;21.40;63.30;;;;;;5071331;28;20265;-86
2023/07/12 09:42:56;;;;;;;;;;;21.50;62.90;;;;;;4989012;28;20354;-86
2023/07/12 09:45:22;;;;;;;;;;;21.70;62.20;;;;;;5060158;28;19922;-87
2023/07/12 09:48:02;;;;;;;;;;;21.90;61.00;;;;;;5037846;28;19910;-87
2023/07/12 09:50:36;;;;;;;;;;;22.10;61.70;;;;;;5038773;28;20400;-88
2023/07/12 09:53:05;;;;;;;;;;;22.00;60.20;;;;;;5038932;28;19921;-87
2023/07/12 09:56:09;;;;;;;;;;;22.10;60.90;;;;;;5038030;28;19914;-87
2023/07/12 09:58:48;;;;;;;;;;;22.10;61.80;;;;;;5030965;28;19976;-88
2023/07/12 10:01:27;;;;;;;;;;;22.30;60.10;;;;;;5030702;28;20329;-88
2023/07/12 10:03:56;;;;;;;;;;;22.40;60.70;;;;;;5024059;28;19945;-89
2023/07/12 10:06:24;;;;;;;;;;;22.50;59.40;;;;;;5037073;28;19946;-88
2023/07/12 10:08:56;;;;;;;;;;;22.40;60.10;;;;;;4971947;28;19914;-87
2023/07/12 10:11:29;;;;;;;;;;;22.40;59.80;;;;;;5037563;28;19911;-88
2023/07/12 10:13:56;;;;;;;;;;;22.50;60.60;;;;;;5037898;28;19922;-88
2023/07/12 10:16:32;;;;;;;;;;;22.50;60.00;;;;;;5049835;28;19898;-87
2023/07/12 10:19:00;;;;;;;;;;;22.50;60.40;;;;;;4981050;28;19914;-88
2023/07/12 10:21:26;;;;;;;;;;;22.40;60.50;;;;;;5069061;28;19906;-89
2023/07/12 10:23:53;;;;;;;;;;;22.50;60.30;;;;;;5042605;28;20294;-88
2023/07/12 10:26:19;;;;;;;;;;;22.80;59.40;;;;;;5037135;28;19918;-88
2023/07/12 10:28:44;;;;;;;;;;;23.00;59.20;;;;;;5037879;28;19918;-88
2023/07/12 10:31:23;;;;;;;;;;;23.00;58.80;;;;;;5053740;28;20014;-87
2023/07/12 10:33:49;;;;;;;;;;;22.90;58.80;;;;;;5037570;28;19963;-88
2023/07/12 10:36:21;;;;;;;;;;;22.90;58.70;;;;;;5035963;28;19998;-87
2023/07/12 10:38:47;;;;;;;;;;;22.90;57.90;;;;;;4985943;28;20055;-88
2023/07/12 10:41:26;;;;;;;;;;;22.90;59.20;;;;;;5070259;28;20071;-86
2023/07/12 10:44:00;;;;;;;;;;;22.90;59.00;;;;;;5037248;28;19941;-88
2023/07/12 10:46:32;;;;;;;;;;;22.90;58.70;;;;;;5036403;28;19910;-88
2023/07/12 10:48:58;;;;;;;;;;;22.90;58.20;;;;;;5037426;28;19963;-88
2023/07/12 10:51:27;;;;;;;;;;;23.10;57.60;;;;;;4987621;28;19921;-87
2023/07/12 10:53:54;;;;;;;;;;;23.30;56.30;;;;;;4970379;28;20348;-88
2023/07/12 10:56:25;;;;;;;;;;;23.40;56.40;;;;;;5035897;28;20367;-87
2023/07/12 10:58:58;;;;;;;;;;;23.20;56.70;;;;;;5054413;28;19957;-86
2023/07/12 11:01:36;;;;;;;;;;;23.10;57.20;;;;;;5036838;28;20338;-88
2023/07/12 11:04:06;;;;;;;;;;;23.20;57.70;;;;;;5058601;28;20379;-88
2023/07/12 11:06:32;;;;;;;;;;;23.30;57.70;;;;;;4969742;28;19975;-86
2023/07/12 11:08:58;;;;;;;;;;;23.40;58.30;;;;;;4970547;28;20363;-87
2023/07/12 11:11:27;;;;;;;;;;;23.30;57.80;;;;;;5053303;28;20027;-88
2023/07/12 11:13:53;;;;;;;;;;;23.50;59.00;;;;;;5053296;28;20419;-88
2023/07/12 11:16:20;;;;;;;;;;;23.50;55.70;;;;;;4969504;28;19917;-88
2023/07/12 11:18:50;;;;;;;;;;;23.50;54.90;;;;;;5037112;28;19911;-88
2023/07/12 11:21:40;;;;;;;;;;;23.40;55.50;;;;;;4969984;28;19911;-86
2023/07/12 11:24:24;;;;;;;;;;;23.40;55.90;;;;;;5053288;28;19922;-88
2023/07/12 11:26:55;;;;;;;;;;;23.50;55.80;;;;;;5053024;28;19910;-88
2023/07/12 11:29:30;;;;;;;;;;;23.60;55.30;;;;;;5038517;28;19911;-88
2023/07/12 11:32:14;;;;;;;;;;;23.60;53.90;;;;;;4969522;28;19917;-88
2023/07/12 11:34:40;;;;;;;;;;;23.30;55.30;;;;;;5052889;28;20379;-88
2023/07/12 11:37:32;;;;;;;;;;;23.10;56.10;;;;;;4979584;28;19959;-88
2023/07/12 11:39:58;;;;;;;;;;;23.00;56.30;;;;;;5018675;28;19911;-89
2023/07/12 11:42:28;;;;;;;;;;;23.00;56.50;;;;;;5032279;28;19914;-89
2023/07/12 11:45:00;;;;;;;;;;;23.30;56.50;;;;;;5064351;28;19924;-87
2023/07/12 11:47:26;;;;;;;;;;;23.60;53.40;;;;;;5073565;28;19913;-88
2023/07/12 11:49:55;;;;;;;;;;;23.80;54.70;;;;;;5073590;28;19917;-88
2023/07/12 11:52:25;;;;;;;;;;;23.90;54.90;;;;;;5072289;28;19902;-85
2023/07/12 11:54:53;;;;;;;;;;;23.90;54.20;;;;;;5045650;28;19929;-90
2023/07/12 11:57:19;;;;;;;;;;;23.60;53.60;;;;;;5041135;28;19928;-88
2023/07/12 11:59:45;;;;;;;;;;;23.50;54.20;;;;;;5032551;28;20005;-88
2023/07/12 12:02:22;;;;;;;;;;;23.30;53.20;;;;;;4950897;29;19957;-89
2023/07/12 12:04:49;;;;;;;;;;;23.10;53.80;;;;;;5031630;28;20253;-90
2023/07/12 12:07:20;;;;;;;;;;;23.00;55.00;;;;;;5016249;28;19964;-89
2023/07/12 12:09:47;;;;;;;;;;;23.10;55.70;;;;;;5042801;28;19911;-89
2023/07/12 12:12:15;;;;;;;;;;;23.00;54.30;;;;;;5052436;28;20001;-87
2023/07/12 12:14:41;;;;;;;;;;;23.10;54.80;;;;;;5035760;28;19918;-89
2023/07/12 12:17:12;;;;;;;;;;;23.30;53.80;;;;;;4969598;28;19930;-88
2023/07/12 12:19:38;;;;;;;;;;;23.50;51.50;;;;;;4968902;28;19967;-88
2023/07/12 12:22:11;;;;;;;;;;;23.70;50.90;;;;;;5036037;28;19914;-87
2023/07/12 12:24:47;;;;;;;;;;;23.90;50.30;;;;;;5052156;28;19964;-87
2023/07/12 12:27:15;;;;;;;;;;;24.00;50.00;;;;;;5027574;28;19911;-87
2023/07/12 12:29:42;;;;;;;;;;;24.00;50.70;;;;;;4950141;28;19967;-87
2023/07/12 12:32:12;;;;;;;;;;;24.00;51.20;;;;;;4949870;28;19917;-87
2023/07/12 12:34:43;;;;;;;;;;;23.90;50.50;;;;;;4949241;29;20410;-88
2023/07/12 12:37:16;;;;;;;;;;;23.80;49.70;;;;;;5035601;28;20299;-87
2023/07/12 12:39:47;;;;;;;;;;;24.00;49.40;;;;;;5072781;28;19910;-87
2023/07/12 12:42:17;;;;;;;;;;;24.30;49.20;;;;;;5071550;28;19918;-87
2023/07/12 12:44:43;;;;;;;;;;;24.50;47.60;;;;;;4987747;28;19926;-88
2023/07/12 12:47:15;;;;;;;;;;;24.70;47.60;;;;;;5072155;28;20271;-88
2023/07/12 12:49:41;;;;;;;;;;;24.50;48.20;;;;;;5072251;28;19917;-89
2023/07/12 12:52:25;;;;;;;;;;;24.40;47.90;;;;;;5069335;28;19914;-88
2023/07/12 12:54:51;;;;;;;;;;;24.30;49.70;;;;;;5051395;28;19914;-88
2023/07/12 12:57:17;;;;;;;;;;;24.30;49.00;;;;;;5035104;28;20275;-87
2023/07/12 12:59:43;;;;;;;;;;;24.30;48.40;;;;;;5052019;28;20039;-87
2023/07/12 13:02:13;;;;;;;;;;;24.30;50.00;;;;;;5035615;28;20627;-88
2023/07/12 13:04:38;;;;;;;;;;;24.50;49.00;;;;;;4968055;28;19914;-88
2023/07/12 13:07:04;;;;;;;;;;;24.70;47.20;;;;;;5035688;28;19929;-88
2023/07/12 13:09:31;;;;;;;;;;;25.10;46.70;;;;;;5035613;28;19910;-87
2023/07/12 13:11:56;;;;;;;;;;;25.20;45.50;;;;;;5039257;28;19914;-87
2023/07/12 13:14:22;;;;;;;;;;;25.10;46.80;;;;;;4968346;28;19977;-87
2023/07/12 13:16:47;;;;;;;;;;;25.00;47.90;;;;;;4970240;28;19914;-87
2023/07/12 13:19:13;;;;;;;;;;;25.00;46.90;;;;;;5038410;28;19914;-88
2023/07/12 13:21:39;;;;;;;;;;;24.90;46.90;;;;;;5039216;28;19957;-87
2023/07/12 13:24:05;;;;;;;;;;;24.60;45.50;;;;;;4972034;28;19914;-87
2023/07/12 13:26:31;;;;;;;;;;;24.50;46.60;;;;;;5038601;28;20000;-88
2023/07/12 13:28:56;;;;;;;;;;;24.30;46.20;;;;;;4993916;28;19941;-87
2023/07/12 13:31:24;;;;;;;;;;;24.20;48.20;;;;;;5060430;28;19914;-86
2023/07/12 13:33:49;;;;;;;;;;;24.20;47.10;;;;;;5048737;28;19923;-86
2023/07/12 13:36:25;;;;;;;;;;;24.30;47.40;;;;;;5052484;28;19918;-86
2023/07/12 13:38:51;;;;;;;;;;;24.50;46.30;;;;;;5058592;28;19910;-87
2023/07/12 13:41:17;;;;;;;;;;;24.60;45.50;;;;;;5055061;28;19937;-87
2023/07/12 13:43:46;;;;;;;;;;;24.50;43.40;;;;;;4970868;28;20393;-86
2023/07/12 13:46:14;;;;;;;;;;;24.50;45.10;;;;;;5038208;28;19993;-88
2023/07/12 13:48:40;;;;;;;;;;;24.70;44.90;;;;;;4970993;28;19910;-88
2023/07/12 13:51:19;;;;;;;;;;;24.80;45.30;;;;;;5047601;28;20432;-88
2023/07/12 13:53:45;;;;;;;;;;;24.90;45.10;;;;;;5042870;28;19914;-89
2023/07/12 13:56:10;;;;;;;;;;;25.00;44.50;;;;;;5044625;28;20546;-89
2023/07/12 13:58:37;;;;;;;;;;;25.00;43.70;;;;;;5040180;28;19950;-87
2023/07/12 14:01:02;;;;;;;;;;;25.00;43.40;;;;;;5040072;28;19910;-88
2023/07/12 14:03:27;;;;;;;;;;;24.90;44.80;;;;;;5039604;28;19975;-88
2023/07/12 14:05:53;;;;;;;;;;;25.00;45.20;;;;;;5038453;28;19911;-89
2023/07/12 14:08:18;;;;;;;;;;;25.10;43.70;;;;;;5039527;28;20406;-88
2023/07/12 14:10:44;;;;;;;;;;;25.20;42.40;;;;;;5039033;28;19921;-89
2023/07/12 14:13:16;;;;;;;;;;;25.30;43.40;;;;;;5038600;28;19915;-88
2023/07/12 14:15:42;;;;;;;;;;;25.30;44.20;;;;;;5038670;28;19929;-88
2023/07/12 14:31:43;;;;;;;;;;;;;;;;;;;;;
2023/07/12 14:34:09;;;;;;;;;;;25.70;41.40;;;;;;4948511;22;20226;-80